createdAt,value
2022-12-19T00:01:35.391Z,48.55
2022-12-19T00:04:07.814Z,46.90
2022-12-19T00:06:35.007Z,38.13
2022-12-19T00:09:01.549Z,40.60
2022-12-19T00:11:29.267Z,50.85
2022-12-19T00:13:55.987Z,54.63
2022-12-19T00:16:24.967Z,44.47
2022-12-19T00:18:55.449Z,42.20
2022-12-19T00:21:25.206Z,47.90
2022-12-19T00:23:52.486Z,25.20
2022-12-19T00:26:22.132Z,49.80
2022-12-19T00:28:52.191Z,45.03
2022-12-19T00:31:19.928Z,45.90
2022-12-19T00:33:47.408Z,38.88
2022-12-19T00:36:22.512Z,48.92
2022-12-19T00:38:51.476Z,40.60
2022-12-19T00:41:29.534Z,47.92
2022-12-19T00:44:00.842Z,23.77
2022-12-19T00:46:28.779Z,27.88
2022-12-19T00:48:55.724Z,45.55
2022-12-19T00:51:25.530Z,43.58
2022-12-19T00:53:53.599Z,26.88
2022-12-19T00:56:27.107Z,15.10
2022-12-19T00:58:54.774Z,26.48
2022-12-19T01:01:24.684Z,42.33
2022-12-19T01:04:26.489Z,37.97
2022-12-19T01:06:37.853Z,34.90
2022-12-19T01:09:06.927Z,36.05
2022-12-19T01:11:52.211Z,35.50
2022-12-19T01:14:22.714Z,23.15
2022-12-19T01:16:50.221Z,36.60
2022-12-19T01:19:16.734Z,35.80
2022-12-19T01:21:43.347Z,45.80
2022-12-19T01:24:10.446Z,38.88
2022-12-19T01:26:37.488Z,48.13
2022-12-19T01:29:04.902Z,43.75
2022-12-19T01:31:32.570Z,28.35
2022-12-19T01:34:00.513Z,43.25
2022-12-19T01:36:28.003Z,31.20
2022-12-19T01:38:58.334Z,42.30
2022-12-19T01:41:25.428Z,26.05
2022-12-19T01:44:01.405Z,22.05
2022-12-19T01:46:38.356Z,28.42
2022-12-19T01:49:10.678Z,41.65
2022-12-19T01:51:46.979Z,41.67
2022-12-19T01:54:34.946Z,39.63
2022-12-19T01:57:04.500Z,39.47
2022-12-19T01:59:52.716Z,43.88
2022-12-19T02:02:33.287Z,40.22
2022-12-19T02:05:01.590Z,40.55
2022-12-19T02:07:28.448Z,38.63
2022-12-19T02:09:57.648Z,35.75
2022-12-19T02:12:26.384Z,23.48
2022-12-19T02:14:58.013Z,48.13
2022-12-19T02:17:38.824Z,24.23
2022-12-19T02:20:40.417Z,44.88
2022-12-19T02:23:50.011Z,46.70
2022-12-19T02:26:34.759Z,28.83
2022-12-19T02:29:19.642Z,32.10
2022-12-19T02:32:06.271Z,22.98
2022-12-19T02:34:49.712Z,41.95
2022-12-19T02:37:41.351Z,33.42
2022-12-19T02:40:19.523Z,41.83
2022-12-19T02:42:50.447Z,41.35
2022-12-19T02:45:22.708Z,40.45
2022-12-19T02:47:57.542Z,45.22
2022-12-19T02:50:25.921Z,29.90
2022-12-19T02:52:52.357Z,41.75
2022-12-19T02:55:23.522Z,22.23
2022-12-19T02:58:13.364Z,29.00
2022-12-19T03:00:54.374Z,25.48
2022-12-19T03:03:29.173Z,37.47
2022-12-19T03:06:01.289Z,41.70
2022-12-19T03:08:33.830Z,38.60
2022-12-19T03:11:07.715Z,27.60
2022-12-19T03:13:39.121Z,22.85
2022-12-19T03:16:09.205Z,20.75
2022-12-19T03:18:36.220Z,39.60
2022-12-19T03:21:19.484Z,27.10
2022-12-19T03:23:47.180Z,35.47
2022-12-19T03:26:19.778Z,35.53
2022-12-19T03:28:52.683Z,39.00
2022-12-19T03:31:23.094Z,27.30
2022-12-19T03:33:55.732Z,41.42
2022-12-19T03:36:28.857Z,40.55
2022-12-19T03:38:57.105Z,27.33
2022-12-19T03:41:44.903Z,12.65
2022-12-19T03:44:14.124Z,27.75
2022-12-19T03:46:46.033Z,20.90
2022-12-19T03:49:13.397Z,16.88
2022-12-19T03:52:31.286Z,36.20
2022-12-19T03:55:36.029Z,23.42
2022-12-19T03:58:10.487Z,37.15
2022-12-19T04:00:42.992Z,35.97
2022-12-19T04:03:11.105Z,34.95
2022-12-19T04:05:38.660Z,14.55
2022-12-19T04:08:08.163Z,19.50
2022-12-19T04:10:44.489Z,15.80
2022-12-19T04:13:16.241Z,13.00
2022-12-19T04:15:54.113Z,30.63
2022-12-19T04:18:21.421Z,22.15
2022-12-19T04:20:58.263Z,36.75
2022-12-19T04:23:40.048Z,29.30
2022-12-19T04:26:08.573Z,31.83
2022-12-19T04:28:42.349Z,35.70
2022-12-19T04:31:13.470Z,15.93
2022-12-19T04:33:39.949Z,21.58
2022-12-19T04:36:06.774Z,23.83
2022-12-19T04:38:33.443Z,8.73
2022-12-19T04:41:00.390Z,12.30
2022-12-19T04:43:26.946Z,17.13
2022-12-19T04:45:57.360Z,24.73
2022-12-19T04:48:25.053Z,30.58
2022-12-19T04:50:51.687Z,22.85
2022-12-19T04:53:18.289Z,26.83
2022-12-19T04:55:44.744Z,32.17
2022-12-19T04:58:11.427Z,22.08
2022-12-19T05:00:38.505Z,23.70
2022-12-19T05:03:05.094Z,25.48
2022-12-19T05:05:31.575Z,20.45
2022-12-19T05:07:58.046Z,22.27
2022-12-19T05:10:24.567Z,32.10
2022-12-19T05:12:51.043Z,36.20
2022-12-19T05:15:17.499Z,27.27
2022-12-19T05:17:43.990Z,32.92
2022-12-19T05:20:10.955Z,32.08
2022-12-19T05:22:37.407Z,23.45
2022-12-19T05:25:04.192Z,12.02
2022-12-19T05:27:30.675Z,35.20
2022-12-19T05:29:57.183Z,4.80
2022-12-19T05:32:23.656Z,30.85
2022-12-19T05:34:50.076Z,8.40
2022-12-19T05:37:16.524Z,35.38
2022-12-19T05:39:42.989Z,24.92
2022-12-19T05:42:12.297Z,21.52
2022-12-19T05:44:39.413Z,14.38
2022-12-19T05:47:06.001Z,21.20
2022-12-19T05:49:32.429Z,33.08
2022-12-19T05:51:58.882Z,24.63
2022-12-19T05:54:26.013Z,34.00
2022-12-19T05:56:52.444Z,22.50
2022-12-19T05:59:18.854Z,14.60
2022-12-19T06:01:45.444Z,23.95
2022-12-19T06:04:11.946Z,19.65
2022-12-19T06:06:38.347Z,40.10
2022-12-19T06:09:04.868Z,21.33
2022-12-19T06:11:31.301Z,19.92
2022-12-19T06:13:57.730Z,28.95
2022-12-19T06:16:24.421Z,35.67
2022-12-19T06:18:51.111Z,30.00
2022-12-19T06:21:22.319Z,23.17
2022-12-19T06:23:49.103Z,15.43
2022-12-19T06:26:19.766Z,6.68
2022-12-19T06:28:48.331Z,24.35
2022-12-19T06:31:15.406Z,19.25
2022-12-19T06:33:41.926Z,31.55
2022-12-19T06:36:21.785Z,21.38
2022-12-19T06:38:49.332Z,27.92
2022-12-19T06:41:35.599Z,31.55
2022-12-19T06:44:04.891Z,23.00
2022-12-19T06:46:31.973Z,31.65
2022-12-19T06:48:58.520Z,15.63
2022-12-19T06:51:25.211Z,21.33
2022-12-19T06:53:52.246Z,14.73
2022-12-19T06:56:18.977Z,13.60
2022-12-19T06:58:46.165Z,24.85
2022-12-19T07:01:30.222Z,29.92
2022-12-19T07:03:57.080Z,11.30
2022-12-19T07:06:23.873Z,23.63
2022-12-19T07:08:50.432Z,27.40
2022-12-19T07:11:16.876Z,24.42
2022-12-19T07:13:43.332Z,31.30
2022-12-19T07:16:10.251Z,30.95
2022-12-19T07:18:39.202Z,25.70
2022-12-19T07:21:08.596Z,21.33
2022-12-19T07:23:35.422Z,25.40
2022-12-19T07:26:01.974Z,18.33
2022-12-19T07:28:28.432Z,24.95
2022-12-19T07:30:55.068Z,25.85
2022-12-19T07:33:22.199Z,29.13
2022-12-19T07:35:48.794Z,20.40
2022-12-19T07:38:15.291Z,39.55
2022-12-19T07:40:41.822Z,31.20
2022-12-19T07:43:08.378Z,23.98
2022-12-19T07:45:37.983Z,24.55
2022-12-19T07:48:06.332Z,11.63
2022-12-19T07:50:34.075Z,13.27
2022-12-19T07:53:00.707Z,15.25
2022-12-19T07:55:27.779Z,23.33
2022-12-19T07:57:55.513Z,21.33
2022-12-19T08:00:22.587Z,22.05
2022-12-19T08:02:49.410Z,18.80
2022-12-19T08:05:16.170Z,24.98
2022-12-19T08:07:42.631Z,20.33
2022-12-19T08:10:11.437Z,30.25
2022-12-19T08:12:38.207Z,18.10
2022-12-19T08:15:05.843Z,28.15
2022-12-19T08:17:34.648Z,10.88
2022-12-19T08:20:01.246Z,25.13
2022-12-19T08:22:29.701Z,18.15
2022-12-19T08:24:57.455Z,24.77
2022-12-19T08:27:24.149Z,34.63
2022-12-19T08:29:50.700Z,24.67
2022-12-19T08:32:20.959Z,11.63
2022-12-19T08:34:49.232Z,25.77
2022-12-19T08:37:15.803Z,29.40
2022-12-19T08:39:42.269Z,17.35
2022-12-19T08:42:08.755Z,22.98
2022-12-19T08:44:35.164Z,28.75
2022-12-19T08:47:02.659Z,32.45
2022-12-19T08:49:29.291Z,33.17
2022-12-19T08:51:55.848Z,23.88
2022-12-19T08:54:22.303Z,13.90
2022-12-19T08:56:48.816Z,25.08
2022-12-19T08:59:30.349Z,20.67
2022-12-19T09:01:59.834Z,21.88
2022-12-19T09:05:58.292Z,21.92
2022-12-19T09:07:15.586Z,14.73
2022-12-19T09:09:42.969Z,31.42
2022-12-19T09:12:09.427Z,19.42
2022-12-19T09:14:36.346Z,16.65
2022-12-19T09:17:03.813Z,22.35
2022-12-19T09:19:32.100Z,20.02
2022-12-19T09:21:58.989Z,20.38
2022-12-19T09:24:25.551Z,12.55
2022-12-19T09:26:52.131Z,23.40
2022-12-19T09:29:20.424Z,21.60
2022-12-19T09:31:55.898Z,27.85
2022-12-19T09:36:59.558Z,33.55
2022-12-19T09:39:26.028Z,26.10
2022-12-19T09:42:07.469Z,24.65
2022-12-19T09:44:49.072Z,20.92
2022-12-19T09:47:36.763Z,23.83
2022-12-19T09:50:15.140Z,29.23
2022-12-19T09:52:56.128Z,25.70
2022-12-19T09:55:28.309Z,20.83
2022-12-19T09:57:57.732Z,21.30
2022-12-19T10:00:34.662Z,17.65
2022-12-19T10:03:16.166Z,27.98
2022-12-19T10:06:29.484Z,14.68
2022-12-19T10:09:45.351Z,29.08
2022-12-19T10:12:40.457Z,23.98
2022-12-19T10:14:55.894Z,19.75
2022-12-19T10:17:31.363Z,15.95
2022-12-19T10:20:13.200Z,13.68
2022-12-19T10:22:54.922Z,23.25
2022-12-19T10:25:39.683Z,17.80
2022-12-19T10:28:11.906Z,18.23
2022-12-19T10:31:21.858Z,26.55
2022-12-19T10:34:06.948Z,20.88
2022-12-19T10:39:33.719Z,21.48
2022-12-19T10:42:15.378Z,25.20
2022-12-19T10:44:43.913Z,22.55
2022-12-19T10:47:16.112Z,8.27
2022-12-19T10:49:43.037Z,19.10
2022-12-19T10:52:12.101Z,16.77
2022-12-19T10:54:40.012Z,21.25
2022-12-19T10:57:21.620Z,21.55
2022-12-19T11:00:15.165Z,20.80
2022-12-19T11:02:47.040Z,18.65
2022-12-19T11:05:51.221Z,23.30
2022-12-19T11:08:33.536Z,16.98
2022-12-19T11:14:23.309Z,15.30
2022-12-19T11:18:44.257Z,18.30
2022-12-19T11:23:31.390Z,22.17
2022-12-19T11:29:17.731Z,12.88
2022-12-19T11:29:45.690Z,22.08
2022-12-19T11:30:35.212Z,19.02
2022-12-19T11:30:38.373Z,9.52
2022-12-19T11:34:23.683Z,16.75
2022-12-19T11:36:53.010Z,12.07
2022-12-19T11:39:41.739Z,9.13
2022-12-19T11:42:14.264Z,16.95
2022-12-19T11:44:49.132Z,20.70
2022-12-19T11:47:54.302Z,21.08
2022-12-19T11:50:28.512Z,12.23
2022-12-19T11:53:18.819Z,13.50
2022-12-19T11:55:51.429Z,9.98
2022-12-19T11:58:18.043Z,12.90
2022-12-19T12:00:58.452Z,16.02
2022-12-19T12:04:01.046Z,11.20
2022-12-19T12:06:34.337Z,29.10
2022-12-19T12:14:08.009Z,26.20
2022-12-19T12:19:35.526Z,18.40
2022-12-19T12:27:29.995Z,21.63
2022-12-19T12:30:57.175Z,16.50
2022-12-19T12:31:12.278Z,15.98
2022-12-19T12:31:19.343Z,18.83
2022-12-19T12:31:39.618Z,23.02
2022-12-19T12:35:40.501Z,8.63
2022-12-19T12:40:45.663Z,17.60
2022-12-19T12:43:36.344Z,19.05
2022-12-19T12:46:14.545Z,15.10
2022-12-19T12:48:50.544Z,19.38
2022-12-19T12:51:18.528Z,21.00
2022-12-19T12:53:47.575Z,16.15
2022-12-19T12:56:17.725Z,9.98
2022-12-19T12:58:47.835Z,22.35
2022-12-19T13:01:15.169Z,10.38
2022-12-19T13:03:43.162Z,13.93
2022-12-19T13:06:25.878Z,9.55
2022-12-19T13:09:01.956Z,18.38
2022-12-19T13:11:47.030Z,16.15
2022-12-19T13:14:32.393Z,4.22
2022-12-19T13:16:58.931Z,18.27
2022-12-19T13:19:37.435Z,18.10
2022-12-19T13:22:03.887Z,18.00
2022-12-19T13:24:50.079Z,18.00
2022-12-19T13:27:19.324Z,16.85
2022-12-19T13:30:00.980Z,20.05
2022-12-19T13:32:33.515Z,18.05
2022-12-19T13:35:55.056Z,10.27
2022-12-19T13:39:57.819Z,14.63
2022-12-19T13:43:48.865Z,16.70
2022-12-19T13:46:24.378Z,15.82
2022-12-19T13:48:56.714Z,15.00
2022-12-19T13:51:23.228Z,16.23
2022-12-19T13:53:59.240Z,18.17
2022-12-19T13:56:30.649Z,17.15
2022-12-19T13:59:04.280Z,11.13
2022-12-19T14:01:33.922Z,4.60
2022-12-19T14:04:13.413Z,7.85
2022-12-19T14:06:47.231Z,19.85
2022-12-19T14:11:27.866Z,7.05
2022-12-19T14:13:57.406Z,12.60
2022-12-19T14:15:44.238Z,16.50
2022-12-19T14:18:45.253Z,17.20
2022-12-19T14:22:08.754Z,12.57
2022-12-19T14:24:16.080Z,17.15
2022-12-19T14:28:22.351Z,13.27
2022-12-19T14:30:30.382Z,8.38
2022-12-19T14:33:44.778Z,12.80
2022-12-19T14:36:09.090Z,13.27
2022-12-19T14:39:25.838Z,12.05
2022-12-19T14:42:01.871Z,4.00
2022-12-19T14:52:25.201Z,12.95
2022-12-19T14:52:35.958Z,17.08
2022-12-19T14:54:04.907Z,14.23
2022-12-19T14:54:50.452Z,14.73
2022-12-19T14:56:58.429Z,8.02
2022-12-19T14:59:05.496Z,14.88
2022-12-19T15:01:34.422Z,11.23
2022-12-19T15:04:50.456Z,15.98
2022-12-19T15:07:08.033Z,16.23
2022-12-19T15:11:04.090Z,16.27
2022-12-19T15:14:49.481Z,16.60
2022-12-19T15:16:01.771Z,6.75
2022-12-19T15:18:28.360Z,15.27
2022-12-19T15:20:57.461Z,14.77
2022-12-19T15:23:24.687Z,7.68
2022-12-19T15:26:08.687Z,6.63
2022-12-19T15:28:41.263Z,12.55
2022-12-19T15:31:17.889Z,10.95
2022-12-19T15:34:14.196Z,13.60
2022-12-19T15:36:30.999Z,15.15
2022-12-19T15:38:58.267Z,10.55
2022-12-19T15:41:25.270Z,13.55
2022-12-19T15:44:08.031Z,10.18
2022-12-19T15:46:34.879Z,17.75
2022-12-19T15:49:02.093Z,5.63
2022-12-19T15:51:28.558Z,13.73
2022-12-19T15:54:08.944Z,12.10
2022-12-19T15:56:51.977Z,13.50
2022-12-19T15:59:37.469Z,7.85
2022-12-19T16:04:39.961Z,15.10
2022-12-19T16:07:15.125Z,9.23
2022-12-19T16:09:42.696Z,7.90
2022-12-19T16:12:14.202Z,14.68
2022-12-19T16:14:40.977Z,1.90
2022-12-19T16:17:14.927Z,9.00
2022-12-19T16:19:41.497Z,13.25
2022-12-19T16:22:24.306Z,6.28
2022-12-19T16:24:52.175Z,9.25
2022-12-19T16:27:25.727Z,13.23
2022-12-19T16:29:54.038Z,15.00
2022-12-19T16:32:24.038Z,16.25
2022-12-19T16:34:51.751Z,11.18
2022-12-19T16:37:18.271Z,16.58
2022-12-19T16:39:44.829Z,13.65
2022-12-19T16:42:18.828Z,6.85
2022-12-19T16:44:48.019Z,15.88
2022-12-19T16:47:17.176Z,9.88
2022-12-19T16:49:44.719Z,4.82
2022-12-19T16:52:11.683Z,11.10
2022-12-19T16:54:38.170Z,7.72
2022-12-19T16:57:07.135Z,10.43
2022-12-19T16:59:37.528Z,12.70
2022-12-19T17:02:32.179Z,16.15
2022-12-19T17:04:58.786Z,8.07
2022-12-19T17:07:32.305Z,9.30
2022-12-19T17:09:58.891Z,12.50
2022-12-19T17:12:27.550Z,15.02
2022-12-19T17:14:54.350Z,13.18
2022-12-19T17:17:20.945Z,10.68
2022-12-19T17:19:47.432Z,15.75
2022-12-19T17:22:16.620Z,8.55
2022-12-19T17:24:45.720Z,9.35
2022-12-19T17:27:13.072Z,9.15
2022-12-19T17:29:39.673Z,6.88
2022-12-19T17:32:09.087Z,20.63
2022-12-19T17:34:35.989Z,10.02
2022-12-19T17:37:05.166Z,15.52
2022-12-19T17:42:44.714Z,13.95
2022-12-19T17:45:11.345Z,10.43
2022-12-19T17:47:37.893Z,6.20
2022-12-19T17:50:06.123Z,9.32
2022-12-19T17:52:35.810Z,9.93
2022-12-19T17:55:26.459Z,8.02
2022-12-19T17:57:53.411Z,9.27
2022-12-19T18:00:28.423Z,13.52
2022-12-19T18:02:57.196Z,13.88
2022-12-19T18:05:28.271Z,8.75
2022-12-19T18:07:55.367Z,13.82
2022-12-19T18:10:25.827Z,9.68
2022-12-19T18:12:53.296Z,7.45
2022-12-19T18:15:21.395Z,13.75
2022-12-19T18:17:50.365Z,10.88
2022-12-19T18:20:32.687Z,5.95
2022-12-19T18:23:00.742Z,12.88
2022-12-19T18:25:31.067Z,11.38
2022-12-19T18:27:58.591Z,15.90
2022-12-19T18:30:25.769Z,8.70
2022-12-19T18:33:01.273Z,8.23
2022-12-19T18:35:43.783Z,5.85
2022-12-19T18:38:16.357Z,15.82
2022-12-19T18:40:43.475Z,14.85
2022-12-19T18:43:13.952Z,4.15
2022-12-19T18:45:43.413Z,14.68
2022-12-19T18:48:30.668Z,11.07
2022-12-19T18:50:58.419Z,19.10
2022-12-19T18:53:35.331Z,8.10
2022-12-19T18:56:05.525Z,12.68
2022-12-19T18:58:33.073Z,13.35
2022-12-19T19:01:01.479Z,9.98
2022-12-19T19:03:31.534Z,11.77
2022-12-19T19:05:58.215Z,3.88
2022-12-19T19:08:28.362Z,7.40
2022-12-19T19:10:55.956Z,8.68
2022-12-19T19:13:24.590Z,11.15
2022-12-19T19:15:53.983Z,10.68
2022-12-19T19:18:25.825Z,3.63
2022-12-19T19:21:00.486Z,8.75
2022-12-19T19:25:56.020Z,10.93
2022-12-19T19:28:22.476Z,9.88
2022-12-19T19:30:50.567Z,8.63
2022-12-19T19:33:23.873Z,9.70
2022-12-19T19:35:56.261Z,6.68
2022-12-19T19:38:23.584Z,5.63
2022-12-19T19:40:50.565Z,4.85
2022-12-19T19:43:17.075Z,5.03
2022-12-19T19:45:43.855Z,7.10
2022-12-19T19:48:10.883Z,12.85
2022-12-19T19:50:37.560Z,9.93
2022-12-19T19:53:04.256Z,7.90
2022-12-19T19:55:31.376Z,13.85
2022-12-19T19:57:57.833Z,6.10
2022-12-19T20:00:24.820Z,3.95
2022-12-19T20:02:51.556Z,8.88
2022-12-19T20:05:18.616Z,10.88
2022-12-19T20:07:45.135Z,8.48
2022-12-19T20:10:12.240Z,9.95
2022-12-19T20:12:38.859Z,10.57
2022-12-19T20:15:06.255Z,8.90
2022-12-19T20:17:32.697Z,10.70
2022-12-19T20:19:59.256Z,16.27
2022-12-19T20:22:25.888Z,4.57
2022-12-19T20:24:52.334Z,13.85
2022-12-19T20:27:18.777Z,9.63
2022-12-19T20:29:45.330Z,13.10
2022-12-19T20:32:12.841Z,8.27
2022-12-19T20:34:39.283Z,6.60
2022-12-19T20:37:05.860Z,11.10
2022-12-19T20:39:33.739Z,5.28
2022-12-19T20:42:00.247Z,6.97
2022-12-19T20:44:26.745Z,7.97
2022-12-19T20:46:53.362Z,12.43
2022-12-19T20:49:19.854Z,11.25
2022-12-19T20:51:47.836Z,7.88
2022-12-19T20:54:15.685Z,9.90
2022-12-19T20:56:42.963Z,8.90
2022-12-19T20:59:10.234Z,5.57
2022-12-19T21:01:37.764Z,15.30
2022-12-19T21:04:05.347Z,13.65
2022-12-19T21:06:32.391Z,22.52
2022-12-19T21:08:58.991Z,13.88
2022-12-19T21:11:26.448Z,10.63
2022-12-19T21:13:53.387Z,10.70
2022-12-19T21:16:21.740Z,8.80
2022-12-19T21:18:49.935Z,8.25
2022-12-19T21:21:22.700Z,5.95
2022-12-19T21:23:50.141Z,4.18
2022-12-19T21:26:16.996Z,8.18
2022-12-19T21:28:44.628Z,5.60
2022-12-19T21:31:25.067Z,11.02
2022-12-19T21:33:55.855Z,5.53
2022-12-19T21:36:24.173Z,5.07
2022-12-19T21:38:53.517Z,2.05
2022-12-19T21:41:20.986Z,6.78
2022-12-19T21:43:51.581Z,9.15
2022-12-19T21:46:19.349Z,7.20
2022-12-19T21:48:49.644Z,9.52
2022-12-19T21:51:18.623Z,8.82
2022-12-19T21:53:45.914Z,8.07
2022-12-19T21:56:15.111Z,7.88
2022-12-19T21:58:41.628Z,13.82
2022-12-19T22:01:11.349Z,8.75
2022-12-19T22:03:39.024Z,3.45
2022-12-19T22:06:08.672Z,9.52
2022-12-19T22:08:36.422Z,3.95
2022-12-19T22:11:03.782Z,6.53
2022-12-19T22:13:30.716Z,8.52
2022-12-19T22:16:02.560Z,11.40
2022-12-19T22:18:29.261Z,6.95
2022-12-19T22:20:59.770Z,12.02
2022-12-19T22:23:26.706Z,10.40
2022-12-19T22:26:10.891Z,4.82
2022-12-19T22:28:39.638Z,10.43
2022-12-19T22:31:26.278Z,12.25
2022-12-19T22:33:55.969Z,11.27
2022-12-19T22:36:28.006Z,9.73
2022-12-19T22:38:58.723Z,8.35
2022-12-19T22:41:26.263Z,10.27
2022-12-19T22:43:54.199Z,5.65
2022-12-19T22:46:26.446Z,1.77
2022-12-19T22:48:56.232Z,9.10
2022-12-19T22:51:23.003Z,5.75
2022-12-19T22:53:49.761Z,7.78
2022-12-19T22:56:18.771Z,8.20
2022-12-19T22:58:48.306Z,7.97
2022-12-19T23:01:20.921Z,5.65
2022-12-19T23:03:50.238Z,4.20
2022-12-19T23:06:18.368Z,8.90
2022-12-19T23:08:45.572Z,7.57
2022-12-19T23:11:17.146Z,9.95
2022-12-19T23:13:44.616Z,3.72
2022-12-19T23:16:11.293Z,3.13
2022-12-19T23:18:38.540Z,2.17
2022-12-19T23:21:09.243Z,6.57
2022-12-19T23:23:42.396Z,4.25
2022-12-19T23:26:16.000Z,3.67
2022-12-19T23:29:03.477Z,6.22
2022-12-19T23:31:30.822Z,5.10
2022-12-19T23:33:58.438Z,11.13
2022-12-19T23:37:09.021Z,8.38
2022-12-19T23:39:12.811Z,8.52
2022-12-19T23:41:39.681Z,9.20
2022-12-19T23:44:06.311Z,7.43
2022-12-19T23:46:32.797Z,3.65
2022-12-19T23:48:59.497Z,5.07
2022-12-19T23:51:27.539Z,10.50
2022-12-19T23:53:55.697Z,9.30
2022-12-19T23:56:24.959Z,3.60
2022-12-19T23:58:52.046Z,2.95
